createdAt,value
2023-02-16T00:00:52.211Z,0
2023-02-16T00:04:17.414Z,0
2023-02-16T00:07:42.630Z,0
2023-02-16T00:11:07.895Z,0
2023-02-16T00:14:33.087Z,0
2023-02-16T00:17:58.310Z,0
2023-02-16T00:21:23.510Z,0
2023-02-16T00:24:48.757Z,0
2023-02-16T00:28:13.995Z,0
2023-02-16T00:31:39.349Z,0
2023-02-16T00:35:04.354Z,0
2023-02-16T00:38:29.572Z,0
2023-02-16T00:41:54.787Z,0
2023-02-16T00:45:20.030Z,0
2023-02-16T00:48:45.434Z,0
2023-02-16T00:52:10.391Z,0
2023-02-16T00:55:35.596Z,0
2023-02-16T00:59:00.792Z,0
2023-02-16T01:02:26.083Z,0
2023-02-16T01:05:51.172Z,0
2023-02-16T01:09:16.383Z,0
2023-02-16T01:12:41.602Z,0
2023-02-16T01:16:06.841Z,0
2023-02-16T01:19:32.006Z,0
2023-02-16T01:22:57.176Z,0
2023-02-16T01:26:22.355Z,0
2023-02-16T01:29:47.572Z,0
2023-02-16T01:33:12.751Z,0
2023-02-16T01:36:38.017Z,0
2023-02-16T01:40:03.205Z,0
2023-02-16T01:43:28.430Z,0
2023-02-16T01:46:53.692Z,0
2023-02-16T01:50:18.835Z,0
2023-02-16T01:53:44.073Z,0
2023-02-16T01:57:09.216Z,0
2023-02-16T02:00:34.435Z,0
2023-02-16T02:03:59.642Z,0
2023-02-16T02:07:24.839Z,0
2023-02-16T02:10:50.087Z,0
2023-02-16T02:14:15.280Z,0
2023-02-16T02:17:40.484Z,0
2023-02-16T02:21:05.906Z,0
2023-02-16T02:24:30.867Z,0
2023-02-16T02:27:56.147Z,0
2023-02-16T02:31:21.354Z,0
2023-02-16T02:34:46.450Z,0
2023-02-16T02:38:11.660Z,0
2023-02-16T02:41:36.859Z,0
2023-02-16T02:45:02.107Z,0
2023-02-16T02:48:27.285Z,0
2023-02-16T02:51:52.514Z,0
2023-02-16T02:55:17.748Z,0
2023-02-16T02:58:42.983Z,0
2023-02-16T03:02:08.269Z,0
2023-02-16T03:05:33.376Z,0
2023-02-16T03:08:58.628Z,0
2023-02-16T03:12:23.836Z,0
2023-02-16T03:15:49.091Z,0
2023-02-16T03:19:14.305Z,0
2023-02-16T03:22:39.504Z,0
2023-02-16T03:26:04.718Z,0
2023-02-16T03:29:29.938Z,0
2023-02-16T03:32:55.143Z,0
2023-02-16T03:36:20.420Z,0
2023-02-16T03:39:45.612Z,0
2023-02-16T03:43:10.827Z,0
2023-02-16T03:46:36.040Z,0
2023-02-16T03:50:01.264Z,0
2023-02-16T03:53:26.497Z,0
2023-02-16T03:56:51.670Z,0
2023-02-16T04:00:16.857Z,0
2023-02-16T04:03:42.089Z,0
2023-02-16T04:07:07.318Z,0
2023-02-16T04:10:32.572Z,0
2023-02-16T04:13:57.744Z,0
2023-02-16T04:17:22.980Z,0
2023-02-16T04:20:48.180Z,0
2023-02-16T04:24:13.377Z,0
2023-02-16T04:27:38.606Z,0
2023-02-16T04:31:04.248Z,0
2023-02-16T04:34:29.024Z,0
2023-02-16T04:37:54.264Z,0
2023-02-16T04:41:19.483Z,0
2023-02-16T04:44:44.728Z,0
2023-02-16T04:48:09.914Z,0
2023-02-16T04:51:35.128Z,0
2023-02-16T04:55:00.333Z,0
2023-02-16T04:58:25.590Z,0
2023-02-16T05:01:50.866Z,0
2023-02-16T05:05:16.006Z,0
2023-02-16T05:08:41.201Z,0
2023-02-16T05:12:06.390Z,0
2023-02-16T05:15:31.657Z,0
2023-02-16T05:18:58.686Z,0
2023-02-16T05:22:21.993Z,0
2023-02-16T05:25:47.224Z,0
2023-02-16T05:29:12.422Z,0
2023-02-16T05:32:37.611Z,0
2023-02-16T05:36:02.836Z,0
2023-02-16T05:39:28.004Z,0
2023-02-16T05:42:53.181Z,0
2023-02-16T05:46:18.469Z,0
2023-02-16T05:49:43.575Z,0
2023-02-16T05:53:08.800Z,0
2023-02-16T05:56:34.011Z,0
2023-02-16T05:59:59.283Z,0
2023-02-16T06:03:24.679Z,0
2023-02-16T06:06:49.978Z,1
2023-02-16T06:10:15.204Z,1
2023-02-16T06:13:40.369Z,3
2023-02-16T06:17:05.560Z,4
2023-02-16T06:20:30.809Z,5
2023-02-16T06:23:56.021Z,7
2023-02-16T06:27:21.242Z,8
2023-02-16T06:30:46.423Z,10
2023-02-16T06:34:11.647Z,13
2023-02-16T06:37:36.851Z,17
2023-02-16T06:41:02.310Z,21
2023-02-16T06:44:27.296Z,26
2023-02-16T06:47:52.478Z,32
2023-02-16T06:51:17.702Z,40
2023-02-16T06:54:42.913Z,46
2023-02-16T06:58:08.122Z,51
2023-02-16T07:01:33.389Z,55
2023-02-16T07:04:58.609Z,62
2023-02-16T07:08:23.853Z,68
2023-02-16T07:11:49.079Z,72
2023-02-16T07:15:14.273Z,76
2023-02-16T07:18:39.513Z,83
2023-02-16T07:22:05.494Z,91
2023-02-16T07:25:30.707Z,99
2023-02-16T07:28:55.877Z,113
2023-02-16T07:32:21.125Z,113
2023-02-16T07:35:46.316Z,118
2023-02-16T07:39:11.535Z,123
2023-02-16T07:42:36.657Z,116
2023-02-16T07:46:01.924Z,112
2023-02-16T07:49:27.044Z,112
2023-02-16T07:52:52.261Z,142
2023-02-16T07:56:17.407Z,150
2023-02-16T07:59:42.606Z,120
2023-02-16T08:03:07.912Z,126
2023-02-16T08:06:33.034Z,142
2023-02-16T08:09:58.378Z,190
2023-02-16T08:13:23.431Z,216
2023-02-16T08:16:51.410Z,218
2023-02-16T08:20:13.847Z,182
2023-02-16T08:23:39.041Z,147
2023-02-16T08:27:04.321Z,230
2023-02-16T08:30:29.576Z,236
2023-02-16T08:33:54.660Z,269
2023-02-16T08:37:19.845Z,273
2023-02-16T08:40:45.047Z,268
2023-02-16T08:44:10.271Z,267
2023-02-16T08:47:35.423Z,245
2023-02-16T08:51:00.625Z,240
2023-02-16T08:54:25.825Z,236
2023-02-16T08:57:50.986Z,236
2023-02-16T09:01:16.985Z,225
2023-02-16T09:04:42.091Z,229
2023-02-16T09:08:07.433Z,230
2023-02-16T09:11:32.591Z,236
2023-02-16T09:14:57.880Z,189
2023-02-16T09:18:23.093Z,220
2023-02-16T09:21:48.251Z,259
2023-02-16T09:25:13.452Z,249
2023-02-16T09:28:38.658Z,291
2023-02-16T09:32:03.853Z,318
2023-02-16T09:35:29.042Z,331
2023-02-16T09:38:54.244Z,351
2023-02-16T09:42:19.453Z,344
2023-02-16T09:45:45.923Z,354
2023-02-16T09:49:11.089Z,347
2023-02-16T09:52:36.374Z,342
2023-02-16T09:56:01.557Z,334
2023-02-16T09:59:26.695Z,323
2023-02-16T10:02:51.966Z,318
2023-02-16T10:06:17.186Z,308
2023-02-16T10:09:42.398Z,304
2023-02-16T10:13:07.568Z,308
2023-02-16T10:16:32.770Z,313
2023-02-16T10:19:57.941Z,321
2023-02-16T10:23:23.167Z,327
2023-02-16T10:26:48.387Z,332
2023-02-16T10:30:13.580Z,344
2023-02-16T10:33:38.735Z,357
2023-02-16T10:37:04.041Z,379
2023-02-16T10:40:29.287Z,386
2023-02-16T10:43:54.504Z,388
2023-02-16T10:47:19.670Z,406
2023-02-16T10:50:44.852Z,417
2023-02-16T10:54:10.065Z,449
2023-02-16T10:57:35.255Z,464
2023-02-16T11:01:00.481Z,458
2023-02-16T11:04:25.641Z,477
2023-02-16T11:07:50.840Z,478
2023-02-16T11:11:16.025Z,532
2023-02-16T11:14:41.186Z,528
2023-02-16T11:18:06.432Z,502
2023-02-16T11:21:31.586Z,555
2023-02-16T11:24:56.839Z,599
2023-02-16T11:28:22.090Z,576
2023-02-16T11:31:47.401Z,586
2023-02-16T11:35:12.517Z,463
2023-02-16T11:38:37.710Z,601
2023-02-16T11:42:02.966Z,609
2023-02-16T11:45:30.293Z,643
2023-02-16T11:48:53.401Z,633
2023-02-16T11:52:18.651Z,613
2023-02-16T11:55:43.839Z,591
2023-02-16T11:59:09.090Z,590
2023-02-16T12:02:34.269Z,607
2023-02-16T12:05:59.502Z,585
2023-02-16T12:09:24.740Z,543
2023-02-16T12:12:49.945Z,569
2023-02-16T12:16:15.151Z,553
2023-02-16T12:19:40.374Z,539
2023-02-16T12:23:05.594Z,549
2023-02-16T12:26:30.828Z,536
2023-02-16T12:29:56.058Z,514
2023-02-16T12:33:21.226Z,494
2023-02-16T12:36:46.462Z,482
2023-02-16T12:40:11.756Z,463
2023-02-16T12:43:36.936Z,452
2023-02-16T12:47:02.155Z,427
2023-02-16T12:50:27.369Z,406
2023-02-16T12:53:52.640Z,392
2023-02-16T12:57:17.854Z,388
2023-02-16T13:00:43.170Z,383
2023-02-16T13:04:08.303Z,377
2023-02-16T13:07:33.567Z,391
2023-02-16T13:10:58.771Z,386
2023-02-16T13:14:23.964Z,315
2023-02-16T13:17:49.210Z,357
2023-02-16T13:21:14.390Z,362
2023-02-16T13:24:39.585Z,340
2023-02-16T13:28:04.845Z,321
2023-02-16T13:31:30.103Z,265
2023-02-16T13:34:55.292Z,190
2023-02-16T13:38:20.490Z,210
2023-02-16T13:41:45.681Z,247
2023-02-16T13:45:10.894Z,305
2023-02-16T13:48:36.101Z,290
2023-02-16T13:52:01.344Z,266
2023-02-16T13:55:26.520Z,251
2023-02-16T13:58:51.731Z,262
2023-02-16T14:02:16.964Z,288
2023-02-16T14:05:42.191Z,315
2023-02-16T14:09:07.440Z,308
2023-02-16T14:12:32.633Z,325
2023-02-16T14:15:57.998Z,264
2023-02-16T14:19:23.067Z,362
2023-02-16T14:22:48.311Z,334
2023-02-16T14:26:13.554Z,231
2023-02-16T14:29:38.769Z,195
2023-02-16T15:05:01.432Z,76
2023-02-16T15:08:26.608Z,112
2023-02-16T15:11:51.804Z,109
2023-02-16T15:15:17.330Z,101
2023-02-16T15:18:42.576Z,100
2023-02-16T15:22:07.808Z,97
2023-02-16T15:25:33.002Z,88
2023-02-16T15:28:58.234Z,79
2023-02-16T15:32:23.454Z,68
2023-02-16T15:35:48.673Z,59
2023-02-16T15:39:13.940Z,53
2023-02-16T15:42:39.104Z,46
2023-02-16T15:46:04.610Z,43
2023-02-16T15:49:29.516Z,43
2023-02-16T15:52:54.780Z,42
2023-02-16T15:56:20.059Z,39
2023-02-16T15:59:45.283Z,36
2023-02-16T16:03:10.514Z,32
2023-02-16T16:06:35.697Z,29
2023-02-16T16:10:00.945Z,25
2023-02-16T16:13:26.187Z,21
2023-02-16T16:16:51.375Z,16
2023-02-16T16:20:16.603Z,12
2023-02-16T16:23:41.797Z,10
2023-02-16T16:27:07.055Z,8
2023-02-16T16:30:32.374Z,5
2023-02-16T16:33:57.520Z,4
2023-02-16T16:37:22.730Z,2
2023-02-16T16:40:47.924Z,1
2023-02-16T16:44:13.148Z,1
2023-02-16T16:47:38.419Z,0
2023-02-16T16:51:03.928Z,0
2023-02-16T16:54:28.858Z,0
2023-02-16T16:57:54.066Z,0
2023-02-16T17:01:19.266Z,0
2023-02-16T17:04:44.481Z,0
2023-02-16T17:08:09.660Z,0
2023-02-16T17:11:34.864Z,0
2023-02-16T17:15:00.087Z,0
2023-02-16T17:18:25.386Z,0
2023-02-16T17:21:50.677Z,0
2023-02-16T17:25:15.886Z,0
2023-02-16T17:28:41.274Z,0
2023-02-16T17:32:06.745Z,0
2023-02-16T17:35:31.856Z,0
2023-02-16T17:38:57.099Z,0
2023-02-16T17:42:22.320Z,0
2023-02-16T17:45:47.608Z,0
2023-02-16T17:49:12.739Z,0
2023-02-16T17:52:37.970Z,2
2023-02-16T17:56:03.613Z,2
2023-02-16T17:59:30.123Z,2
2023-02-16T18:02:53.712Z,2
2023-02-16T18:06:18.933Z,3
2023-02-16T18:09:44.209Z,3
2023-02-16T18:13:09.484Z,2
2023-02-16T18:16:34.677Z,0
2023-02-16T18:19:59.943Z,0
2023-02-16T18:23:25.206Z,0
2023-02-16T18:26:50.499Z,0
2023-02-16T18:30:15.784Z,0
2023-02-16T18:33:41.016Z,0
2023-02-16T18:37:06.236Z,0
2023-02-16T18:40:31.461Z,0
2023-02-16T18:43:56.714Z,0
2023-02-16T18:47:21.966Z,0
2023-02-16T18:50:47.181Z,0
2023-02-16T18:54:12.458Z,0
2023-02-16T18:57:37.742Z,0
2023-02-16T19:01:02.987Z,0
2023-02-16T19:04:28.336Z,0
2023-02-16T19:07:53.448Z,0
2023-02-16T19:11:18.728Z,0
2023-02-16T19:14:44.009Z,0
2023-02-16T19:18:09.222Z,0
2023-02-16T19:21:34.498Z,0
2023-02-16T19:24:59.713Z,0
2023-02-16T19:28:25.075Z,0
2023-02-16T19:31:50.476Z,0
2023-02-16T19:35:15.600Z,0
2023-02-16T19:38:40.867Z,0
2023-02-16T19:42:06.109Z,0
2023-02-16T19:45:31.342Z,0
2023-02-16T19:48:56.661Z,0
2023-02-16T19:52:21.894Z,0
2023-02-16T19:55:47.180Z,0
2023-02-16T19:59:12.408Z,0
2023-02-16T20:02:37.705Z,0
2023-02-16T20:06:03.171Z,0
2023-02-16T20:09:28.185Z,0
2023-02-16T20:12:53.466Z,0
2023-02-16T20:16:18.771Z,0
2023-02-16T20:19:43.954Z,0
2023-02-16T20:23:09.205Z,0
2023-02-16T20:26:34.692Z,0
2023-02-16T20:29:59.771Z,0
2023-02-16T20:33:24.989Z,0
2023-02-16T20:36:50.233Z,0
2023-02-16T20:40:15.488Z,0
2023-02-16T20:43:40.763Z,0
2023-02-16T20:47:05.982Z,0
2023-02-16T20:50:31.157Z,0
2023-02-16T20:53:56.351Z,0
2023-02-16T20:57:26.970Z,0
2023-02-16T21:00:46.777Z,0
2023-02-16T21:04:11.947Z,0
2023-02-16T21:07:37.107Z,0
2023-02-16T21:11:02.303Z,0
2023-02-16T21:14:27.482Z,0
2023-02-16T21:17:52.671Z,0
2023-02-16T21:21:17.903Z,0
2023-02-16T21:24:43.051Z,0
2023-02-16T21:28:08.238Z,0
2023-02-16T21:31:33.512Z,0
2023-02-16T21:34:58.597Z,0
2023-02-16T21:38:23.830Z,0
2023-02-16T21:41:49.008Z,0
2023-02-16T21:45:14.192Z,0
2023-02-16T21:48:39.382Z,0
2023-02-16T21:52:05.514Z,0
2023-02-16T21:55:30.684Z,0
2023-02-16T21:58:55.883Z,0
2023-02-16T22:02:21.063Z,0
2023-02-16T22:05:46.246Z,0
2023-02-16T22:09:11.442Z,0
2023-02-16T22:12:36.645Z,0
2023-02-16T22:16:01.796Z,0
2023-02-16T22:19:27.001Z,0
2023-02-16T22:22:52.183Z,0
2023-02-16T22:26:17.384Z,0
2023-02-16T22:29:42.586Z,0
2023-02-16T22:33:07.769Z,0
2023-02-16T22:36:32.998Z,0
2023-02-16T22:39:58.382Z,0
2023-02-16T22:43:27.515Z,0
2023-02-16T22:46:53.271Z,0
2023-02-16T22:50:20.794Z,0
2023-02-16T22:53:46.126Z,0
2023-02-16T22:57:11.607Z,0
2023-02-16T23:00:36.773Z,0
2023-02-16T23:04:21.405Z,0
2023-02-16T23:07:48.479Z,0
2023-02-16T23:11:13.644Z,0
2023-02-16T23:14:38.841Z,0
2023-02-16T23:18:04.011Z,0
2023-02-16T23:21:29.199Z,0
2023-02-16T23:24:54.374Z,0
2023-02-16T23:28:19.561Z,0
2023-02-16T23:31:44.764Z,0
2023-02-16T23:35:09.921Z,0
2023-02-16T23:38:35.153Z,0
2023-02-16T23:42:00.302Z,0
2023-02-16T23:45:25.502Z,0
2023-02-16T23:48:50.684Z,0
2023-02-16T23:52:15.872Z,0
2023-02-16T23:55:41.104Z,0
2023-02-16T23:59:06.244Z,0
